Time;durP1;ratioP1;P1;durP2;ratioP2;P2;SDS_P1;SDS_P2;PMS_P1;PMS_P2;Temp;Humidity;BMP_temperature;BMP_pressure;BME280_temperature;BME280_humidity;BME280_pressure;Samples;Min_cycle;Max_cycle;Signal;HPM_P1;HPM_P2
2022/08/01 00:00:07;;;;;;;5.25;1.65;;;;;;;15.81;100.00;101335.28;5012864;28;20496;-85
2022/08/01 00:02:37;;;;;;;3.78;1.40;;;;;;;15.83;100.00;101340.47;5012664;28;20046;-85
2022/08/01 00:05:05;;;;;;;4.00;1.40;;;;;;;15.76;100.00;101329.38;5011801;28;20132;-86
2022/08/01 00:07:36;;;;;;;4.32;1.55;;;;;;;15.80;100.00;101333.56;5011931;28;20104;-85
2022/08/01 00:10:05;;;;;;;9.48;2.15;;;;;;;15.73;100.00;101337.41;4988150;28;20530;-85
2022/08/01 00:12:32;;;;;;;5.38;1.65;;;;;;;15.72;100.00;101333.94;5008258;28;20054;-85
2022/08/01 00:14:58;;;;;;;6.45;1.83;;;;;;;15.70;100.00;101325.22;5014550;28;20137;-85
2022/08/01 00:17:25;;;;;;;7.30;1.85;;;;;;;15.82;100.00;101331.72;5017151;28;20548;-85
2022/08/01 00:19:52;;;;;;;8.20;2.28;;;;;;;15.78;100.00;101343.38;5012455;28;20049;-85
2022/08/01 00:22:19;;;;;;;6.78;1.73;;;;;;;15.54;100.00;101332.19;5012147;28;20045;-84
2022/08/01 00:24:45;;;;;;;6.07;1.70;;;;;;;15.69;100.00;101330.59;5030834;28;20046;-84
2022/08/01 00:27:12;;;;;;;6.72;1.60;;;;;;;15.49;100.00;101313.06;5012210;28;20046;-85
2022/08/01 00:29:39;;;;;;;7.97;1.90;;;;;;;15.54;100.00;101319.00;5013444;28;20074;-86
2022/08/01 00:32:26;;;;;;;10.48;2.28;;;;;;;15.60;100.00;101321.34;5012482;28;20393;-85
2022/08/01 00:34:52;;;;;;;5.35;1.65;;;;;;;15.45;100.00;101314.16;5011273;28;20052;-85
2022/08/01 00:37:19;;;;;;;10.65;2.20;;;;;;;15.48;100.00;101317.50;5011956;28;20053;-85
2022/08/01 00:39:46;;;;;;;6.70;1.70;;;;;;;15.62;100.00;101318.63;5011474;28;20706;-85
2022/08/01 00:42:13;;;;;;;9.25;2.40;;;;;;;15.52;100.00;101305.88;5010291;28;20046;-85
2022/08/01 00:44:40;;;;;;;5.45;1.33;;;;;;;15.63;100.00;101313.25;5013005;28;20408;-85
2022/08/01 00:47:07;;;;;;;7.63;1.85;;;;;;;15.57;100.00;101313.56;5010841;28;20046;-85
2022/08/01 00:49:34;;;;;;;7.47;1.65;;;;;;;15.63;100.00;101313.25;5013199;28;20136;-85
2022/08/01 00:52:04;;;;;;;5.85;1.58;;;;;;;15.57;100.00;101308.28;5012213;28;20560;-86
2022/08/01 00:54:32;;;;;;;10.25;2.40;;;;;;;15.65;100.00;101310.53;5008451;28;20205;-85
2022/08/01 00:56:59;;;;;;;7.38;1.70;;;;;;;15.51;100.00;101298.91;5011474;28;20060;-86
2022/08/01 00:59:26;;;;;;;10.43;2.17;;;;;;;15.36;100.00;101300.47;5011622;28;20072;-85
2022/08/01 01:01:53;;;;;;;5.53;1.50;;;;;;;15.46;100.00;101300.06;5012202;28;20124;-85
2022/08/01 01:04:21;;;;;;;9.88;2.05;;;;;;;15.46;100.00;101300.91;5029268;28;20099;-85
2022/08/01 01:06:59;;;;;;;4.80;1.55;;;;;;;15.45;100.00;101295.69;5001756;28;20544;-85
2022/08/01 01:09:49;;;;;;;8.52;2.00;;;;;;;15.46;100.00;101298.25;5011214;28;20062;-85
2022/08/01 01:12:38;;;;;;;12.95;1.90;;;;;;;15.13;100.00;101267.31;5011064;28;20523;-85
2022/08/01 01:15:26;;;;;;;5.88;1.40;;;;;;;15.28;100.00;101288.59;5013411;28;20073;-86
2022/08/01 01:18:02;;;;;;;3.88;1.35;;;;;;;15.37;100.00;101293.44;5010551;28;20080;-85
2022/08/01 01:20:48;;;;;;;4.45;1.30;;;;;;;15.39;100.00;101278.38;5005776;28;20060;-85
2022/08/01 01:23:28;;;;;;;6.18;1.92;;;;;;;15.45;100.00;101288.63;5011392;28;20054;-85
2022/08/01 01:26:15;;;;;;;7.15;1.75;;;;;;;15.50;100.00;101302.44;5011612;28;20052;-85
2022/08/01 01:29:03;;;;;;;5.07;1.67;;;;;;;15.55;100.00;101287.25;5010185;28;20419;-86
2022/08/01 01:31:48;;;;;;;5.13;1.67;;;;;;;15.35;100.00;101282.97;5014924;28;20050;-86
2022/08/01 01:34:18;;;;;;;7.20;1.88;;;;;;;15.38;100.00;101284.59;5012596;28;20050;-85
2022/08/01 01:36:47;;;;;;;6.22;1.80;;;;;;;15.26;100.00;101267.56;5014234;28;20071;-86
2022/08/01 01:39:16;;;;;;;4.72;1.50;;;;;;;15.02;100.00;101230.06;5022240;28;20053;-86
2022/08/01 01:41:46;;;;;;;6.95;1.77;;;;;;;15.08;100.00;101250.84;5004567;28;20050;-85
2022/08/01 01:44:15;;;;;;;4.80;1.60;;;;;;;15.10;100.00;101258.69;5014288;28;20054;-85
2022/08/01 01:46:43;;;;;;;10.05;1.92;;;;;;;15.06;100.00;101260.63;5012266;28;20045;-85
2022/08/01 01:49:11;;;;;;;6.28;1.63;;;;;;;15.06;100.00;101268.53;5005816;28;20403;-85
2022/08/01 01:51:42;;;;;;;7.40;1.77;;;;;;;14.99;100.00;101253.94;5011358;28;20050;-85
2022/08/01 01:54:32;;;;;;;8.65;1.80;;;;;;;14.98;100.00;101255.72;5012387;28;20604;-85
2022/08/01 01:57:01;;;;;;;5.57;1.27;;;;;;;15.05;100.00;101258.94;5011573;28;20050;-85
2022/08/01 01:59:31;;;;;;;4.90;1.50;;;;;;;14.97;100.00;101248.72;5022984;28;20056;-85
2022/08/01 02:02:02;;;;;;;5.68;1.60;;;;;;;14.92;100.00;101248.09;5010846;28;20057;-85
2022/08/01 02:04:35;;;;;;;5.90;1.50;;;;;;;14.94;100.00;101255.94;5013271;28;20129;-85
2022/08/01 02:07:03;;;;;;;5.93;2.03;;;;;;;15.04;100.00;101251.94;5002329;28;20061;-85
2022/08/01 02:09:31;;;;;;;4.38;1.42;;;;;;;15.11;100.00;101241.94;5010574;28;20053;-85
2022/08/01 02:11:59;;;;;;;8.30;1.77;;;;;;;15.11;100.00;101241.94;5011377;28;20046;-85
2022/08/01 02:14:35;;;;;;;4.55;1.48;;;;;;;15.00;100.00;101237.19;5025075;28;20088;-85
2022/08/01 02:17:03;;;;;;;8.48;1.73;;;;;;;14.94;100.00;101235.72;5010877;28;20056;-85
2022/08/01 02:19:32;;;;;;;7.63;1.65;;;;;;;14.88;100.00;101219.31;5010933;28;20100;-85
2022/08/01 02:22:26;;;;;;;4.70;1.38;;;;;;;15.19;100.00;101251.19;5011053;28;20552;-85
2022/08/01 02:25:01;;;;;;;4.20;1.50;;;;;;;15.25;100.00;101254.47;5012411;28;20045;-85
2022/08/01 02:27:45;;;;;;;5.43;1.63;;;;;;;15.29;100.00;101238.41;5009294;28;20061;-85
2022/08/01 02:30:13;;;;;;;8.02;1.67;;;;;;;15.30;100.00;101247.19;5004806;28;20512;-85
2022/08/01 02:32:51;;;;;;;8.13;1.92;;;;;;;15.25;100.00;101246.56;5018930;28;20125;-84
2022/08/01 02:35:26;;;;;;;5.45;1.48;;;;;;;15.34;100.00;101249.56;5018302;28;20408;-85
2022/08/01 02:37:55;;;;;;;5.15;1.60;;;;;;;15.36;100.00;101239.78;5010305;28;20049;-84
2022/08/01 02:40:23;;;;;;;7.28;1.67;;;;;;;15.44;100.00;101226.25;5010844;28;20057;-85
2022/08/01 02:42:52;;;;;;;6.30;1.60;;;;;;;15.51;100.00;101235.56;5010808;28;20391;-85
2022/08/01 02:45:22;;;;;;;5.78;1.50;;;;;;;15.69;100.00;101240.84;5020017;28;20128;-85
2022/08/01 02:47:51;;;;;;;6.40;1.77;;;;;;;15.49;100.00;101226.00;5009632;28;20050;-85
2022/08/01 02:50:18;;;;;;;5.03;1.58;;;;;;;15.51;100.00;101229.41;5026995;28;20388;-85
2022/08/01 02:52:50;;;;;;;6.35;1.52;;;;;;;15.44;100.00;101234.16;5010164;28;20070;-85
2022/08/01 02:55:19;;;;;;;7.00;1.95;;;;;;;15.35;100.00;101217.00;5009110;28;20518;-85
2022/08/01 02:57:48;;;;;;;5.63;1.73;;;;;;;15.55;100.00;101233.63;5009029;28;20061;-85
2022/08/01 03:00:18;;;;;;;6.38;1.45;;;;;;;15.59;100.00;101218.47;5010275;28;20411;-85
2022/08/01 03:02:54;;;;;;;6.88;1.67;;;;;;;15.69;100.00;101225.00;5010152;28;20609;-85
2022/08/01 03:05:22;;;;;;;6.03;1.30;;;;;;;15.82;100.00;101230.53;5015853;28;20054;-85
2022/08/01 03:07:52;;;;;;;8.70;1.85;;;;;;;15.77;100.00;101224.63;5013564;28;20056;-85
2022/08/01 03:10:21;;;;;;;5.95;1.70;;;;;;;15.77;100.00;101228.13;5013658;28;20060;-85
2022/08/01 03:12:49;;;;;;;7.90;1.38;;;;;;;15.76;100.00;101218.50;5016264;28;20042;-84
2022/08/01 03:15:18;;;;;;;8.10;1.67;;;;;;;15.66;100.00;101204.88;5013937;28;20064;-85
2022/08/01 03:17:47;;;;;;;7.43;1.60;;;;;;;15.69;100.00;101222.38;5013329;28;20411;-85
2022/08/01 03:20:16;;;;;;;4.97;1.67;;;;;;;15.63;100.00;101214.75;5014746;28;20069;-85
2022/08/01 03:22:45;;;;;;;6.00;1.70;;;;;;;15.62;100.00;101218.34;5013567;28;20456;-85
2022/08/01 03:25:15;;;;;;;5.93;1.40;;;;;;;15.75;100.00;101222.91;5023034;28;20049;-85
2022/08/01 03:27:51;;;;;;;6.80;1.65;;;;;;;15.88;100.00;101220.50;5027255;28;20046;-85
2022/08/01 03:30:18;;;;;;;3.72;1.30;;;;;;;15.60;100.00;101181.44;5012708;28;20053;-85
2022/08/01 03:32:46;;;;;;;5.50;1.42;;;;;;;15.80;100.00;101208.63;5013228;28;20064;-85
2022/08/01 03:35:12;;;;;;;5.65;1.45;;;;;;;15.83;100.00;101203.19;5016313;28;20081;-85
2022/08/01 03:37:47;;;;;;;6.88;1.73;;;;;;;15.87;100.00;101195.03;5014283;28;20049;-85
2022/08/01 03:40:48;;;;;;;4.70;1.30;;;;;;;15.90;100.00;101202.78;5013072;28;20050;-85
2022/08/01 03:44:17;;;;;;;5.28;1.50;;;;;;;15.96;100.00;101198.97;5014805;28;20097;-85
2022/08/01 03:46:47;;;;;;;6.30;1.70;;;;;;;15.88;100.00;101194.09;4963553;28;20511;-85
2022/08/01 03:49:28;;;;;;;5.88;1.48;;;;;;;15.86;100.00;101176.63;5002850;28;20054;-85
2022/08/01 03:51:57;;;;;;;7.43;1.80;;;;;;;15.91;100.00;101179.88;5012849;28;20052;-85
2022/08/01 03:54:28;;;;;;;6.32;1.48;;;;;;;15.97;100.00;101181.31;5019734;28;20400;-85
2022/08/01 03:56:54;;;;;;;10.63;1.90;;;;;;;15.94;100.00;101174.44;5013059;28;20050;-84
2022/08/01 03:59:22;;;;;;;6.30;1.70;;;;;;;15.99;100.00;101182.97;5007091;28;20077;-86
2022/08/01 04:01:49;;;;;;;7.05;1.70;;;;;;;16.00;100.00;101182.00;5012578;28;20415;-86
2022/08/01 04:04:16;;;;;;;4.43;1.40;;;;;;;15.81;100.00;101184.81;5019272;28;20049;-85
2022/08/01 04:06:44;;;;;;;4.30;1.35;;;;;;;15.79;100.00;101157.59;5013023;28;20053;-85
2022/08/01 04:09:14;;;;;;;3.95;1.35;;;;;;;15.99;100.00;101172.41;5012548;28;20057;-85
2022/08/01 04:11:41;;;;;;;4.45;1.30;;;;;;;16.10;100.00;101185.03;5013957;28;20046;-85
2022/08/01 04:14:08;;;;;;;5.28;1.55;;;;;;;16.06;100.00;101170.25;5034191;28;20423;-85
2022/08/01 04:16:35;;;;;;;7.75;1.60;;;;;;;16.12;100.00;101177.88;5030973;28;20476;-86
2022/08/01 04:19:02;;;;;;;6.78;1.42;;;;;;;16.07;100.00;101164.06;5028836;28;20053;-85
2022/08/01 04:21:32;;;;;;;8.15;1.75;;;;;;;16.09;100.00;101149.81;5012684;28;20049;-85
2022/08/01 04:24:04;;;;;;;4.93;1.15;;;;;;;16.19;100.00;101173.13;5020674;28;20728;-85
2022/08/01 04:26:34;;;;;;;6.80;1.45;;;;;;;15.92;100.00;101126.13;5033024;28;20395;-84
2022/08/01 04:29:04;;;;;;;5.00;1.20;;;;;;;16.20;100.00;101178.31;5028794;28;20056;-85
2022/08/01 04:31:33;;;;;;;6.57;1.35;;;;;;;16.08;100.00;101171.91;5013624;28;20052;-84
2022/08/01 04:34:03;;;;;;;5.93;1.58;;;;;;;16.10;100.00;101169.19;5015992;28;20052;-85
2022/08/01 04:36:32;;;;;;;6.03;1.52;;;;;;;16.19;100.00;101165.19;5012937;28;20049;-84
2022/08/01 04:39:01;;;;;;;4.40;1.33;;;;;;;16.26;100.00;101175.34;5012331;28;20038;-85
2022/08/01 04:41:30;;;;;;;4.25;1.30;;;;;;;16.25;100.00;101162.22;5012051;28;20054;-84
2022/08/01 04:43:59;;;;;;;5.40;1.67;;;;;;;16.23;100.00;101161.44;5014812;28;20044;-84
2022/08/01 04:46:27;;;;;;;7.00;1.40;;;;;;;16.20;100.00;101162.47;5013115;28;20484;-85
2022/08/01 04:48:54;;;;;;;5.07;1.40;;;;;;;16.25;100.00;101160.41;5007177;28;20046;-84
2022/08/01 04:51:22;;;;;;;8.65;1.70;;;;;;;16.23;100.00;101162.28;5011395;28;20081;-84
2022/08/01 04:53:50;;;;;;;5.28;1.60;;;;;;;16.11;100.00;101165.59;5010174;28;20052;-84
2022/08/01 04:56:20;;;;;;;4.47;1.48;;;;;;;16.13;100.00;101143.47;5010872;28;20084;-84
2022/08/01 04:58:47;;;;;;;6.47;1.42;;;;;;;16.24;100.00;101147.31;5011382;28;20053;-84
2022/08/01 05:01:15;;;;;;;6.47;1.48;;;;;;;16.23;100.00;101140.31;5010966;28;20057;-85
2022/08/01 05:03:42;;;;;;;8.18;1.70;;;;;;;16.29;100.00;101154.03;5015803;28;20049;-84
2022/08/01 05:06:09;;;;;;;5.22;1.90;;;;;;;16.29;100.00;101153.19;5012685;28;20056;-85
2022/08/01 05:08:35;;;;;;;6.55;1.73;;;;;;;16.28;100.00;101154.97;5027447;28;20050;-85
2022/08/01 05:11:03;;;;;;;6.53;1.60;;;;;;;16.27;100.00;101141.84;5010986;28;20057;-84
2022/08/01 05:13:30;;;;;;;4.15;1.20;;;;;;;16.30;100.00;101152.25;5029690;28;20059;-84
2022/08/01 05:15:57;;;;;;;5.60;1.40;;;;;;;16.15;100.00;101143.38;5010776;28;20199;-85
2022/08/01 05:18:25;;;;;;;6.63;1.38;;;;;;;16.21;100.00;101150.94;5004471;28;20078;-85
2022/08/01 05:20:54;;;;;;;5.05;1.40;;;;;;;16.17;100.00;101145.94;5005575;28;20558;-85
2022/08/01 05:23:21;;;;;;;5.15;1.30;;;;;;;16.26;100.00;101142.78;5013516;28;20495;-84
2022/08/01 05:26:08;;;;;;;5.32;1.30;;;;;;;16.36;100.00;101144.00;5015863;28;20057;-84
2022/08/01 05:28:35;;;;;;;5.75;1.33;;;;;;;16.42;100.00;101154.22;4997999;28;20538;-85
2022/08/01 05:31:03;;;;;;;5.50;1.55;;;;;;;16.12;100.00;101131.16;5010663;28;20054;-84
2022/08/01 05:33:30;;;;;;;7.13;1.65;;;;;;;16.20;100.00;101141.34;5011428;28;20052;-84
2022/08/01 05:35:56;;;;;;;4.25;1.30;;;;;;;16.04;100.00;101092.91;5012759;28;20052;-84
2022/08/01 05:38:23;;;;;;;7.28;1.50;;;;;;;16.31;100.00;101115.16;5010719;28;20050;-85
2022/08/01 05:40:50;;;;;;;5.47;1.80;;;;;;;16.49;100.00;101131.78;5010111;28;20049;-85
2022/08/01 05:43:17;;;;;;;4.63;1.30;;;;;;;16.63;100.00;101133.66;5011399;28;20050;-85
2022/08/01 05:45:45;;;;;;;4.47;1.45;;;;;;;16.61;100.00;101127.59;5012281;28;20046;-85
2022/08/01 05:48:12;;;;;;;6.57;1.83;;;;;;;16.38;100.00;101134.19;5010977;28;20081;-85
2022/08/01 05:50:40;;;;;;;5.85;1.45;;;;;;;16.43;100.00;101128.63;5012244;28;20054;-85
2022/08/01 05:53:06;;;;;;;6.68;1.65;;;;;;;16.00;100.00;101067.59;5010861;28;20056;-85
2022/08/01 05:55:34;;;;;;;5.45;1.75;;;;;;;16.40;100.00;101099.75;5011380;28;20084;-85
2022/08/01 05:58:02;;;;;;;9.25;1.70;;;;;;;16.53;100.00;101119.25;5011794;28;20054;-85
2022/08/01 06:00:28;;;;;;;6.18;1.52;;;;;;;16.79;100.00;101124.84;5011069;28;20563;-85
2022/08/01 06:02:55;;;;;;;7.57;1.50;;;;;;;17.00;100.00;101128.09;5003816;28;20064;-85
2022/08/01 06:05:22;;;;;;;5.43;1.40;;;;;;;16.72;100.00;101127.00;5013454;28;20602;-87
2022/08/01 06:07:49;;;;;;;4.68;1.40;;;;;;;16.37;100.00;101108.69;5014755;28;20061;-89
2022/08/01 06:10:15;;;;;;;6.38;1.80;;;;;;;16.43;100.00;101111.00;5009554;28;20072;-88
2022/08/01 06:12:42;;;;;;;7.45;1.90;;;;;;;16.40;100.00;101079.44;5016888;28;20064;-88
2022/08/01 06:15:09;;;;;;;9.93;1.85;;;;;;;17.53;100.00;101104.63;5012226;28;20396;-88
2022/08/01 06:17:36;;;;;;;9.32;1.95;;;;;;;17.86;100.00;101091.13;5011124;28;20499;-88
2022/08/01 06:20:05;;;;;;;10.63;2.17;;;;;;;18.27;100.00;101097.41;5014141;28;20045;-87
2022/08/01 06:22:36;;;;;;;;;;;;;;;19.16;100.00;101126.91;5016474;28;20100;-88
2022/08/01 06:25:04;;;;;;;6.88;1.63;;;;;;;19.11;100.00;101081.25;5010236;28;20005;-88
2022/08/01 06:27:34;;;;;;;6.15;1.63;;;;;;;19.23;100.00;101123.84;5006491;28;20476;-88
2022/08/01 06:30:00;;;;;;;7.38;1.70;;;;;;;19.40;100.00;101073.09;5029281;28;20052;-88
2022/08/01 06:32:27;;;;;;;8.38;1.80;;;;;;;19.66;100.00;101067.78;5012061;28;20046;-88
2022/08/01 06:34:54;;;;;;;9.63;1.90;;;;;;;20.01;100.00;101113.13;5021802;28;20062;-88
2022/08/01 06:37:22;;;;;;;10.55;2.35;;;;;;;19.80;100.00;101112.00;5011599;28;20057;-88
2022/08/01 06:39:49;;;;;;;7.28;1.77;;;;;;;20.20;100.00;101095.84;5010597;28;20113;-88
2022/08/01 06:42:17;;;;;;;15.23;2.70;;;;;;;19.39;100.00;101082.03;5011936;28;20104;-88
2022/08/01 06:44:44;;;;;;;8.75;2.03;;;;;;;19.57;100.00;101092.34;5013765;28;20053;-87
2022/08/01 06:47:11;;;;;;;8.73;1.88;;;;;;;19.60;100.00;101058.44;5013747;28;20550;-88
2022/08/01 06:49:38;;;;;;;8.52;1.75;;;;;;;19.75;100.00;101061.00;5009166;28;20052;-88
2022/08/01 06:52:05;;;;;;;10.23;1.88;;;;;;;19.09;100.00;101051.31;5019311;28;20073;-88
2022/08/01 06:54:32;;;;;;;6.70;1.63;;;;;;;19.60;100.00;101070.84;5014099;28;20046;-87
2022/08/01 06:56:59;;;;;;;10.50;1.85;;;;;;;19.86;100.00;101075.19;5010390;28;20424;-88
2022/08/01 06:59:26;;;;;;;11.75;2.50;;;;;;;20.35;100.00;101093.88;5016008;28;20132;-87
2022/08/01 07:01:53;;;;;;;7.05;1.98;;;;;;;20.45;100.00;101062.97;5014860;28;20554;-87
2022/08/01 07:04:19;;;;;;;12.63;2.30;;;;;;;20.76;100.00;101077.53;5024140;28;20120;-88
2022/08/01 07:06:46;;;;;;;9.32;1.90;;;;;;;21.15;100.00;101074.63;5014875;28;20437;-88
2022/08/01 07:09:13;;;;;;;11.38;2.47;;;;;;;20.75;100.00;101072.31;5011963;28;20050;-89
2022/08/01 07:11:40;;;;;;;7.90;1.85;;;;;;;19.64;100.00;101064.38;5023160;28;20141;-88
2022/08/01 07:14:07;;;;;;;7.85;1.73;;;;;;;20.37;100.00;101081.31;5011230;28;20100;-88
2022/08/01 07:16:34;;;;;;;7.72;1.90;;;;;;;19.58;100.00;101043.56;5013627;28;20053;-89
2022/08/01 07:19:01;;;;;;;7.55;1.70;;;;;;;20.17;100.00;101045.53;5007451;28;20112;-88
2022/08/01 07:21:27;;;;;;;6.93;1.70;;;;;;;21.05;100.00;101085.13;5012903;28;20060;-88
2022/08/01 07:24:12;;;;;;;9.20;2.22;;;;;;;21.93;100.00;101057.84;5016744;28;20041;-88
2022/08/01 07:26:46;;;;;;;5.65;1.35;;;;;;;21.80;100.00;101079.31;5029615;28;20054;-88
2022/08/01 07:29:23;;;;;;;7.30;1.75;;;;;;;21.90;100.00;101063.44;5000755;28;20061;-89
2022/08/01 07:31:52;;;;;;;6.93;1.65;;;;;;;22.51;100.00;101105.63;5011739;28;20053;-88
2022/08/01 07:34:19;;;;;;;7.97;1.88;;;;;;;22.40;96.94;101072.78;5013610;28;20069;-89
2022/08/01 07:36:46;;;;;;;6.20;1.50;;;;;;;21.96;100.00;101072.75;5011852;28;20056;-88
2022/08/01 07:39:13;;;;;;;10.05;2.13;;;;;;;21.74;100.00;101079.81;5016672;28;20128;-88
2022/08/01 07:41:40;;;;;;;9.63;1.58;;;;;;;21.50;100.00;101063.94;5014622;28;20055;-88
2022/08/01 07:44:27;;;;;;;8.27;1.95;;;;;;;20.53;100.00;101060.59;5011258;28;20049;-88
2022/08/01 07:46:54;;;;;;;6.20;1.50;;;;;;;20.44;100.00;101062.13;5008098;28;20050;-88
2022/08/01 07:49:21;;;;;;;6.22;1.58;;;;;;;20.80;100.00;101033.75;5014494;28;20407;-88
2022/08/01 07:51:49;;;;;;;8.10;2.00;;;;;;;20.63;100.00;101060.81;5007837;28;20054;-88
2022/08/01 07:54:36;;;;;;;7.63;1.80;;;;;;;20.74;100.00;101086.63;5027383;28;20046;-88
2022/08/01 07:57:03;;;;;;;6.28;1.48;;;;;;;20.57;100.00;101091.31;5002175;28;20043;-88
2022/08/01 07:59:30;;;;;;;6.90;1.65;;;;;;;20.07;100.00;101045.38;5008922;28;20049;-89
2022/08/01 08:01:57;;;;;;;5.25;1.50;;;;;;;20.20;100.00;101050.66;5011946;28;20056;-87
2022/08/01 08:04:25;;;;;;;8.43;2.20;;;;;;;20.42;100.00;101074.69;5019604;28;20046;-88
2022/08/01 08:06:53;;;;;;;6.78;2.00;;;;;;;20.29;100.00;101088.06;5024242;28;20046;-88
2022/08/01 08:09:20;;;;;;;6.70;1.55;;;;;;;20.57;100.00;101037.28;5012074;28;20050;-88
2022/08/01 08:11:46;;;;;;;8.10;1.83;;;;;;;20.40;100.00;101049.19;5016011;28;20061;-88
2022/08/01 08:14:15;;;;;;;5.63;1.60;;;;;;;20.55;100.00;101036.56;5005443;28;20093;-88
2022/08/01 08:16:43;;;;;;;6.18;1.73;;;;;;;20.98;100.00;101049.28;4999519;28;20054;-88
2022/08/01 08:19:11;;;;;;;10.52;2.08;;;;;;;21.48;100.00;101063.19;5007099;28;20049;-88
2022/08/01 08:21:38;;;;;;;5.47;1.77;;;;;;;21.64;100.00;101053.97;5006840;28;20081;-87
2022/08/01 08:24:21;;;;;;;8.52;1.92;;;;;;;21.66;100.00;101018.28;5015026;28;20043;-88
2022/08/01 08:27:00;;;;;;;6.82;2.00;;;;;;;22.46;100.00;101072.28;5011098;28;20045;-88
2022/08/01 08:29:29;;;;;;;7.60;1.75;;;;;;;22.70;97.12;101058.72;5016688;28;20054;-88
2022/08/01 08:31:58;;;;;;;7.57;1.85;;;;;;;23.16;95.28;101065.53;5005844;28;20400;-88
2022/08/01 08:34:31;;;;;;;10.73;2.22;;;;;;;22.54;89.18;101054.69;5012996;28;20050;-88
2022/08/01 08:37:00;;;;;;;6.35;1.67;;;;;;;22.54;94.67;101053.81;5016626;28;20467;-88
2022/08/01 08:39:29;;;;;;;6.13;1.60;;;;;;;23.08;96.43;101026.13;5017964;28;20469;-88
2022/08/01 08:42:01;;;;;;;9.13;2.40;;;;;;;23.74;83.56;101062.28;5003341;28;20132;-87
2022/08/01 08:44:28;;;;;;;;;;;;;;;22.90;81.43;101057.06;5009305;28;20050;-88
2022/08/01 08:46:58;;;;;;;6.05;1.40;;;;;;;22.44;91.55;100994.22;5011135;28;20015;-88
2022/08/01 08:49:28;;;;;;;7.00;1.50;;;;;;;23.21;83.38;101025.91;5013995;28;20067;-87
2022/08/01 08:52:03;;;;;;;8.85;1.70;;;;;;;20.93;96.22;101006.22;5020636;28;20396;-88
2022/08/01 08:54:32;;;;;;;5.53;1.55;;;;;;;20.83;100.00;101032.69;5009703;28;20096;-87
2022/08/01 08:57:00;;;;;;;9.30;1.60;;;;;;;20.72;100.00;101032.66;5001272;28;20057;-87
2022/08/01 08:59:27;;;;;;;11.95;1.67;;;;;;;21.29;100.00;101033.63;5006319;28;20488;-87
2022/08/01 09:01:55;;;;;;;6.68;1.60;;;;;;;20.89;100.00;101008.25;5016353;28;20075;-87
2022/08/01 09:04:24;;;;;;;4.07;1.40;;;;;;;21.23;100.00;100997.69;5011193;28;20046;-88
2022/08/01 09:06:54;;;;;;;3.80;1.33;;;;;;;22.51;96.76;101025.56;5009321;28;20054;-88
2022/08/01 09:09:22;;;;;;;4.68;1.30;;;;;;;22.63;90.08;100989.00;5012480;28;20049;-87
2022/08/01 09:11:48;;;;;;;8.73;1.88;;;;;;;22.52;89.04;101000.59;5013182;28;20116;-87
2022/08/01 09:14:26;;;;;;;6.03;1.35;;;;;;;21.71;95.32;101015.22;5016286;28;20048;-87
2022/08/01 09:17:10;;;;;;;8.57;1.58;;;;;;;21.54;93.72;101001.44;5006332;28;20054;-87
2022/08/01 09:19:43;;;;;;;8.98;1.85;;;;;;;21.33;94.00;101016.44;5009623;28;20614;-87
2022/08/01 09:22:12;;;;;;;7.95;1.90;;;;;;;20.79;100.00;100997.50;5010627;28;20046;-87
2022/08/01 09:24:40;;;;;;;7.85;2.10;;;;;;;20.10;100.00;101016.78;5015278;28;20480;-87
2022/08/01 09:27:23;;;;;;;5.53;1.52;;;;;;;20.48;100.00;101026.34;5022695;28;20057;-87
2022/08/01 09:29:52;;;;;;;5.53;1.70;;;;;;;20.47;100.00;101027.34;5008628;28;21297;-86
2022/08/01 09:32:30;;;;;;;7.28;1.80;;;;;;;20.88;100.00;101019.88;5011100;28;20050;-87
2022/08/01 09:35:25;;;;;;;9.68;2.00;;;;;;;21.60;100.00;101021.41;5013254;28;20431;-87
2022/08/01 09:38:18;;;;;;;7.43;1.70;;;;;;;22.48;98.25;100985.81;5012981;28;20046;-87
2022/08/01 09:40:47;;;;;;;8.73;1.70;;;;;;;23.06;94.33;100979.19;5010197;28;20045;-87
2022/08/01 09:43:15;;;;;;;8.73;2.33;;;;;;;22.75;91.20;100969.28;5012155;28;20121;-87
2022/08/01 09:45:42;;;;;;;8.02;2.03;;;;;;;22.96;92.85;100981.75;5030441;28;20706;-87
2022/08/01 09:48:11;;;;;;;9.93;1.77;;;;;;;21.52;100.00;101015.84;5011460;28;20050;-87
2022/08/01 09:50:43;;;;;;;10.32;1.70;;;;;;;22.15;100.00;100998.28;5025793;28;20056;-87
2022/08/01 09:53:11;;;;;;;8.55;2.25;;;;;;;22.53;97.32;101010.28;5010469;28;20050;-87
2022/08/01 09:56:09;;;;;;;10.25;2.22;;;;;;;21.96;93.73;101009.59;5026420;28;20476;-85
2022/08/01 09:58:58;;;;;;;10.95;2.50;;;;;;;21.89;88.23;100970.25;5003086;28;20433;-84
2022/08/01 10:01:46;;;;;;;8.63;2.30;;;;;;;21.31;95.36;101005.06;5008671;28;20054;-84
2022/08/01 10:04:19;;;;;;;9.48;2.00;;;;;;;21.35;96.19;100990.50;5013523;28;20049;-84
2022/08/01 10:06:52;;;;;;;7.60;1.83;;;;;;;21.65;88.64;100981.09;5023000;28;20813;-84
2022/08/01 10:09:35;;;;;;;9.50;2.30;;;;;;;21.45;94.47;100988.81;5018834;28;20092;-85
2022/08/01 10:12:06;;;;;;;9.45;2.13;;;;;;;21.32;99.37;100994.28;5012342;28;20481;-85
2022/08/01 10:14:35;;;;;;;9.55;2.20;;;;;;;21.11;98.28;100980.00;5012837;28;20045;-84
2022/08/01 10:17:03;;;;;;;9.98;2.15;;;;;;;21.05;99.03;100963.53;5017534;28;20544;-84
2022/08/01 10:19:32;;;;;;;6.15;1.98;;;;;;;21.46;95.57;101013.66;5015790;28;20050;-85
2022/08/01 10:22:00;;;;;;;7.63;2.08;;;;;;;21.58;91.53;100962.06;5014859;28;20054;-84
2022/08/01 10:24:29;;;;;;;9.68;2.53;;;;;;;21.21;96.37;100984.47;5024963;28;20096;-85
2022/08/01 10:27:04;;;;;;;8.40;2.10;;;;;;;21.11;95.81;100926.75;5015052;28;20054;-85
2022/08/01 10:30:03;;;;;;;7.32;1.92;;;;;;;22.19;92.69;100990.88;5017592;28;20057;-85
2022/08/01 10:32:48;;;;;;;6.18;1.60;;;;;;;22.07;89.51;100958.06;5008848;28;20061;-85
2022/08/01 10:35:19;;;;;;;6.55;1.98;;;;;;;21.94;88.78;100960.06;5028408;28;20057;-85
2022/08/01 10:38:06;;;;;;;8.23;1.90;;;;;;;21.50;93.67;100975.19;5016186;28;20069;-84
2022/08/01 10:40:40;;;;;;;6.28;1.60;;;;;;;22.24;87.80;100955.81;5013076;28;20140;-84
2022/08/01 10:43:10;;;;;;;9.65;2.30;;;;;;;21.64;86.65;100966.06;5012867;28;20137;-85
2022/08/01 10:45:38;;;;;;;9.77;2.33;;;;;;;21.67;88.07;100968.47;5014022;28;20377;-85
2022/08/01 10:48:20;;;;;;;8.18;2.38;;;;;;;21.97;88.66;100965.13;5013947;28;20053;-84
2022/08/01 10:50:52;;;;;;;11.20;2.47;;;;;;;20.89;93.29;100895.66;5011703;28;20076;-84
2022/08/01 10:53:20;;;;;;;13.80;2.42;;;;;;;21.64;86.67;100913.63;5016312;28;20476;-85
2022/08/01 10:55:56;;;;;;;9.75;2.22;;;;;;;22.19;89.21;100950.88;5028762;28;20163;-85
2022/08/01 10:58:33;;;;;;;7.45;2.08;;;;;;;22.24;86.65;100911.34;5014580;28;20053;-85
2022/08/01 11:01:23;;;;;;;9.07;2.38;;;;;;;22.51;79.65;100950.03;5014680;28;20056;-85
2022/08/01 11:04:03;;;;;;;8.70;1.80;;;;;;;22.28;79.21;100942.13;5016305;28;20395;-85
2022/08/01 11:06:32;;;;;;;7.15;1.70;;;;;;;22.23;74.61;100943.47;5014156;28;20049;-84
2022/08/01 11:09:24;;;;;;;6.72;1.55;;;;;;;22.05;73.01;100927.19;5014733;28;20137;-84
2022/08/01 11:12:12;;;;;;;6.68;1.58;;;;;;;22.06;77.34;100931.53;4994670;28;20125;-84
2022/08/01 11:15:00;;;;;;;8.55;2.20;;;;;;;22.21;71.57;100937.44;5012452;28;20403;-84
2022/08/01 11:17:36;;;;;;;7.57;2.13;;;;;;;21.70;75.84;100906.94;5003805;28;20485;-84
2022/08/01 11:20:15;;;;;;;12.35;2.40;;;;;;;21.56;84.33;100932.88;5013909;28;20042;-83
2022/08/01 11:23:01;;;;;;;10.02;2.08;;;;;;;21.39;84.91;100952.88;5025153;28;20049;-85
2022/08/01 11:25:39;;;;;;;10.32;2.42;;;;;;;20.98;93.98;100950.81;5020895;28;20046;-86
2022/08/01 11:28:29;;;;;;;12.25;2.60;;;;;;;21.13;91.39;100957.59;5012503;28;20061;-85
2022/08/01 11:31:12;;;;;;;10.20;2.20;;;;;;;21.21;89.80;100944.53;5012763;28;20073;-86
2022/08/01 11:33:42;;;;;;;11.93;2.40;;;;;;;21.03;90.68;100944.19;5020840;28;20092;-86
2022/08/01 11:36:12;;;;;;;7.00;1.90;;;;;;;21.31;88.92;100933.97;5015242;28;20061;-84
2022/08/01 11:38:47;;;;;;;7.13;2.17;;;;;;;20.99;91.86;100929.41;5011706;28;20046;-85